createdAt,value
2023-02-11T02:01:54.879Z,16.20
2023-02-11T02:04:37.633Z,13.10
2023-02-11T02:07:29.202Z,14.10
2023-02-11T02:10:13.499Z,18.80
2023-02-11T02:12:50.221Z,17.60
2023-02-11T02:15:41.827Z,12.70
2023-02-11T02:18:45.768Z,14.60
2023-02-11T02:22:00.447Z,13.80
2023-02-11T02:25:30.882Z,13.60
2023-02-11T02:28:37.773Z,14.10
2023-02-11T02:31:52.695Z,13.50
2023-02-11T02:34:40.605Z,10.70
2023-02-11T02:37:24.322Z,12.00
2023-02-11T02:40:02.712Z,11.10
2023-02-11T02:42:41.008Z,16.30
2023-02-11T02:45:21.396Z,11.90
2023-02-11T02:47:58.359Z,11.90
2023-02-11T02:50:41.544Z,11.10
2023-02-11T02:53:35.615Z,14.50
2023-02-11T02:56:17.940Z,17.00
2023-02-11T02:59:28.656Z,11.20
2023-02-11T03:02:22.276Z,9.90
2023-02-11T03:05:06.908Z,10.70
2023-02-11T03:07:55.218Z,6.90
2023-02-11T03:10:37.164Z,9.40
2023-02-11T03:13:19.668Z,8.60
2023-02-11T03:16:00.597Z,8.70
2023-02-11T03:18:43.595Z,7.40
2023-02-11T03:21:22.329Z,8.70
2023-02-11T03:24:06.249Z,8.00
2023-02-11T03:26:51.615Z,5.00
2023-02-11T03:29:40.424Z,5.70
2023-02-11T03:32:27.636Z,6.90
2023-02-11T03:35:15.332Z,8.00
2023-02-11T03:37:59.380Z,5.90
2023-02-11T03:40:43.691Z,7.90
2023-02-11T03:43:26.078Z,6.30
2023-02-11T03:46:04.907Z,6.60
2023-02-11T03:48:47.418Z,7.30
2023-02-11T03:51:25.706Z,7.20
2023-02-11T03:54:08.456Z,9.80
2023-02-11T03:56:54.615Z,5.60
2023-02-11T03:59:30.904Z,5.70
2023-02-11T04:02:07.549Z,7.20
2023-02-11T04:04:44.285Z,7.50
2023-02-11T04:07:22.043Z,5.50
2023-02-11T04:09:58.731Z,7.00
2023-02-11T04:12:36.016Z,7.60
2023-02-11T04:15:15.877Z,8.20
2023-02-11T04:17:53.263Z,8.60
2023-02-11T04:20:30.117Z,7.30
2023-02-11T04:23:06.562Z,7.40
2023-02-11T04:25:42.986Z,7.90
2023-02-11T04:28:20.148Z,11.20
2023-02-11T04:30:56.902Z,10.50
2023-02-11T04:33:33.933Z,6.20
2023-02-11T04:36:13.339Z,7.40
2023-02-11T04:38:50.728Z,7.80
2023-02-11T04:41:26.816Z,9.70
2023-02-11T04:44:03.808Z,7.60
2023-02-11T04:46:41.037Z,10.40
2023-02-11T04:49:19.472Z,8.60
2023-02-11T04:51:57.240Z,9.00
2023-02-11T04:54:34.394Z,8.20
2023-02-11T04:57:11.554Z,8.50
2023-02-11T04:59:49.368Z,10.20
2023-02-11T05:02:26.396Z,12.30
2023-02-11T05:05:03.450Z,10.10
2023-02-11T05:07:44.876Z,8.20
2023-02-11T05:10:21.837Z,7.90
2023-02-11T05:12:59.401Z,7.80
2023-02-11T05:15:36.740Z,5.70
2023-02-11T05:18:15.034Z,8.20
2023-02-11T05:20:51.695Z,7.50
2023-02-11T05:23:29.861Z,8.10
2023-02-11T05:26:06.742Z,7.80
2023-02-11T05:28:43.555Z,11.20
2023-02-11T05:31:20.408Z,10.40
2023-02-11T05:33:57.162Z,12.60
2023-02-11T05:36:35.534Z,13.80
2023-02-11T05:39:13.399Z,10.90
2023-02-11T05:41:52.076Z,9.90
2023-02-11T05:44:28.271Z,9.50
2023-02-11T05:47:05.195Z,10.80
2023-02-11T05:49:42.464Z,12.50
2023-02-11T05:52:19.387Z,11.60
2023-02-11T05:54:56.933Z,10.80
2023-02-11T05:57:34.756Z,10.60
2023-02-11T06:00:17.227Z,10.70
2023-02-11T06:02:55.234Z,9.30
2023-02-11T06:05:32.639Z,9.90
2023-02-11T06:08:09.846Z,9.70
2023-02-11T06:10:49.998Z,9.80
2023-02-11T06:13:27.504Z,11.20
2023-02-11T06:16:09.421Z,9.50
2023-02-11T06:18:46.758Z,8.00
2023-02-11T06:21:26.460Z,10.80
2023-02-11T06:24:09.711Z,5.80
2023-02-11T06:26:46.758Z,9.50
2023-02-11T06:29:23.657Z,9.90
2023-02-11T06:32:01.137Z,9.00
2023-02-11T06:34:41.287Z,10.90
2023-02-11T06:37:19.182Z,10.60
2023-02-11T06:39:56.878Z,11.10
2023-02-11T06:42:34.894Z,12.00
2023-02-11T06:45:13.923Z,10.20
2023-02-11T06:47:50.520Z,12.20
2023-02-11T06:50:26.965Z,11.10
2023-02-11T06:53:04.277Z,15.50
2023-02-11T06:55:43.478Z,10.00
2023-02-11T06:58:21.456Z,13.70
2023-02-11T07:00:59.358Z,10.80
2023-02-11T07:03:38.168Z,10.20
2023-02-11T07:06:17.660Z,14.10
2023-02-11T07:08:55.271Z,12.00
2023-02-11T07:11:33.452Z,11.30
2023-02-11T07:14:14.128Z,10.30
2023-02-11T07:16:50.630Z,10.70
2023-02-11T07:19:27.745Z,10.20
2023-02-11T07:22:04.577Z,9.70
2023-02-11T07:24:41.977Z,13.50
2023-02-11T07:27:20.024Z,16.50
2023-02-11T07:29:57.572Z,11.60
2023-02-11T07:32:35.509Z,11.10
2023-02-11T07:35:15.321Z,12.80
2023-02-11T07:37:52.658Z,16.20
2023-02-11T07:40:29.352Z,14.70
2023-02-11T07:43:07.955Z,11.80
2023-02-11T07:45:46.258Z,11.50
2023-02-11T07:48:23.430Z,11.40
2023-02-11T07:51:07.582Z,14.00
2023-02-11T07:53:45.038Z,16.30
2023-02-11T07:56:22.643Z,13.50
2023-02-11T07:59:02.435Z,13.60
2023-02-11T08:01:39.159Z,12.00
2023-02-11T08:04:16.497Z,10.50
2023-02-11T08:06:59.238Z,12.60
2023-02-11T08:09:36.778Z,11.20
2023-02-11T08:12:15.374Z,9.10
2023-02-11T08:14:52.228Z,9.90
2023-02-11T08:17:29.499Z,8.60
2023-02-11T08:20:06.647Z,9.60
2023-02-11T08:22:44.432Z,9.50
2023-02-11T08:25:21.613Z,13.50
2023-02-11T08:27:59.301Z,10.30
2023-02-11T08:30:36.590Z,12.20
2023-02-11T08:33:13.810Z,10.90
2023-02-11T08:35:51.113Z,11.40
2023-02-11T08:38:32.519Z,12.10
2023-02-11T08:41:10.709Z,14.30
2023-02-11T08:43:49.605Z,12.00
2023-02-11T08:46:27.568Z,10.60
2023-02-11T08:49:05.532Z,11.60
2023-02-11T08:51:42.723Z,15.60
2023-02-11T08:54:19.324Z,12.80
2023-02-11T08:56:59.525Z,8.60
2023-02-11T08:59:36.914Z,11.60
2023-02-11T09:02:16.883Z,13.90
2023-02-11T09:04:52.792Z,14.30
2023-02-11T09:07:30.995Z,11.90
2023-02-11T09:10:08.471Z,14.40
2023-02-11T09:12:45.841Z,17.50
2023-02-11T09:15:22.996Z,14.70
2023-02-11T09:18:00.444Z,14.60
2023-02-11T09:20:37.733Z,16.70
2023-02-11T09:23:18.523Z,21.50
2023-02-11T09:25:55.372Z,21.00
2023-02-11T09:28:32.096Z,27.30
2023-02-11T09:31:13.422Z,28.50
2023-02-11T09:33:54.833Z,26.30
2023-02-11T09:36:34.040Z,26.40
2023-02-11T09:39:15.396Z,22.00
2023-02-11T09:42:26.596Z,19.00
2023-02-11T09:45:04.376Z,21.80
2023-02-11T09:47:48.120Z,25.20
2023-02-11T09:50:31.488Z,22.10
2023-02-11T09:53:14.252Z,24.60
2023-02-11T09:55:57.996Z,20.30
2023-02-11T09:58:39.281Z,23.30
2023-02-11T10:01:33.597Z,26.70
2023-02-11T10:04:18.937Z,24.80
2023-02-11T10:06:59.653Z,24.00
2023-02-11T10:10:05.941Z,20.80
2023-02-11T10:13:03.263Z,21.40
2023-02-11T10:15:52.447Z,21.30
2023-02-11T10:18:58.085Z,24.30
2023-02-11T10:21:47.870Z,30.60
2023-02-11T10:24:25.042Z,27.80
2023-02-11T10:27:03.759Z,31.30
2023-02-11T10:29:48.975Z,29.40
2023-02-11T10:32:41.988Z,27.20
2023-02-11T10:35:26.712Z,28.40
2023-02-11T10:38:04.957Z,27.30
2023-02-11T10:40:42.393Z,25.60
2023-02-11T10:43:25.219Z,27.90
2023-02-11T10:46:05.172Z,28.60
2023-02-11T10:48:49.909Z,26.00
2023-02-11T10:51:29.568Z,29.20
2023-02-11T10:54:24.748Z,30.00
2023-02-11T10:57:06.459Z,28.10
2023-02-11T10:59:44.972Z,29.10
2023-02-11T11:02:34.901Z,24.80
2023-02-11T11:05:22.696Z,28.10
2023-02-11T11:08:13.275Z,30.60
2023-02-11T11:10:53.104Z,28.20
2023-02-11T11:13:36.770Z,24.10
2023-02-11T11:16:35.306Z,26.10
2023-02-11T11:19:33.707Z,27.20
2023-02-11T11:22:21.871Z,25.60
2023-02-11T11:25:01.657Z,26.10
2023-02-11T11:27:39.191Z,36.40
2023-02-11T11:30:25.763Z,28.10
2023-02-11T11:33:04.333Z,33.30
2023-02-11T11:35:41.292Z,29.00
2023-02-11T11:38:20.557Z,32.20
2023-02-11T11:41:23.936Z,31.70
2023-02-11T11:44:30.492Z,25.60
2023-02-11T11:47:48.317Z,28.60
2023-02-11T11:50:42.605Z,29.70
2023-02-11T11:53:28.433Z,28.60
2023-02-11T11:56:11.481Z,25.20
2023-02-11T11:58:49.226Z,27.10
2023-02-11T12:01:42.806Z,28.70
2023-02-11T12:04:51.151Z,25.60
2023-02-11T12:07:47.734Z,22.60
2023-02-11T12:10:58.047Z,26.50
2023-02-11T12:13:57.591Z,25.30
2023-02-11T12:16:53.720Z,25.40
2023-02-11T12:20:26.645Z,26.70
2023-02-11T12:23:35.940Z,24.70
2023-02-11T12:26:23.817Z,26.50
2023-02-11T12:29:18.948Z,24.30
2023-02-11T12:32:22.286Z,22.50
2023-02-11T12:35:19.568Z,23.30
2023-02-11T12:38:27.028Z,23.20
2023-02-11T12:41:47.291Z,21.80
2023-02-11T12:44:40.070Z,21.10
2023-02-11T12:47:34.868Z,27.20
2023-02-11T12:50:23.059Z,25.80
2023-02-11T12:53:26.526Z,25.90
2023-02-11T12:56:14.898Z,30.50
2023-02-11T12:58:55.245Z,25.70
2023-02-11T13:01:40.779Z,29.30
2023-02-11T13:04:32.033Z,28.90
2023-02-11T13:07:18.438Z,29.20
2023-02-11T13:10:02.620Z,32.00
2023-02-11T13:12:59.622Z,27.70
2023-02-11T13:15:41.550Z,33.90
2023-02-11T13:18:44.921Z,32.80
2023-02-11T13:21:59.833Z,31.40
2023-02-11T13:24:49.438Z,36.80
2023-02-11T13:27:51.685Z,38.90
2023-02-11T13:30:35.354Z,28.20
2023-02-11T13:33:37.327Z,34.70
2023-02-11T13:36:30.281Z,26.60
2023-02-11T13:39:21.980Z,28.80
2023-02-11T13:42:08.249Z,27.80
2023-02-11T13:44:45.103Z,30.10
2023-02-11T13:47:37.790Z,25.40
2023-02-11T13:50:27.799Z,31.10
2023-02-11T13:53:11.051Z,25.90
2023-02-11T13:55:53.008Z,26.40
2023-02-11T13:58:51.710Z,29.40
2023-02-11T14:02:13.144Z,28.90
2023-02-11T14:05:45.857Z,24.60
2023-02-11T14:08:45.406Z,26.90
2023-02-11T14:11:58.151Z,27.20
2023-02-11T14:14:58.814Z,31.60
2023-02-11T14:17:38.712Z,26.00
2023-02-11T14:20:45.659Z,24.10
2023-02-11T14:23:33.072Z,26.00
2023-02-11T14:26:34.150Z,25.20
2023-02-11T14:29:25.659Z,26.90
2023-02-11T14:32:14.188Z,27.80
2023-02-11T14:35:09.175Z,27.00
2023-02-11T14:37:58.535Z,24.00
2023-02-11T14:40:43.341Z,22.40
2023-02-11T14:43:29.122Z,21.30
2023-02-11T14:46:06.225Z,23.60
2023-02-11T14:48:48.896Z,24.70
2023-02-11T14:51:29.033Z,23.20
2023-02-11T14:54:17.153Z,23.90
2023-02-11T14:57:11.457Z,24.10
2023-02-11T15:00:05.556Z,19.20
2023-02-11T15:02:45.685Z,23.30
2023-02-11T15:05:31.471Z,23.50
2023-02-11T15:08:17.628Z,25.30
2023-02-11T15:10:56.334Z,24.10
2023-02-11T15:13:36.725Z,22.20
2023-02-11T15:16:18.661Z,22.10
2023-02-11T15:19:00.281Z,24.50
2023-02-11T15:21:40.586Z,23.30
2023-02-11T15:24:30.819Z,24.80
2023-02-11T15:27:16.648Z,29.50
2023-02-11T15:29:54.100Z,23.80
2023-02-11T15:32:32.329Z,29.00
2023-02-11T15:35:14.572Z,26.50
2023-02-11T15:37:53.142Z,24.80
2023-02-11T15:40:35.252Z,27.40
2023-02-11T15:43:13.914Z,26.40
2023-02-11T15:46:00.630Z,27.30
2023-02-11T15:48:45.273Z,30.90
2023-02-11T15:51:29.544Z,26.80
2023-02-11T15:54:10.478Z,26.20
2023-02-11T15:56:49.881Z,23.00
2023-02-11T15:59:32.477Z,29.30
2023-02-11T16:02:19.597Z,26.40
2023-02-11T16:05:03.459Z,29.40
2023-02-11T16:07:52.661Z,28.70
2023-02-11T16:10:33.282Z,32.70
2023-02-11T16:13:26.183Z,31.70
2023-02-11T16:16:07.148Z,27.50
2023-02-11T16:19:04.304Z,26.30
2023-02-11T16:21:49.377Z,27.40
2023-02-11T16:24:32.228Z,27.20
2023-02-11T16:27:21.106Z,32.70
2023-02-11T16:29:59.022Z,29.20
2023-02-11T16:32:36.722Z,33.00
2023-02-11T16:35:19.226Z,29.40
2023-02-11T16:37:56.871Z,31.90
2023-02-11T16:40:34.158Z,27.80
2023-02-11T16:43:11.857Z,30.80
2023-02-11T16:45:50.143Z,32.10
2023-02-11T16:48:28.227Z,32.90
2023-02-11T16:51:06.075Z,31.60
2023-02-11T16:53:43.108Z,32.20
2023-02-11T16:56:23.185Z,32.50
2023-02-11T16:59:00.469Z,35.20
2023-02-11T17:01:37.788Z,34.70
2023-02-11T17:04:20.608Z,35.50
2023-02-11T17:06:58.469Z,37.80
2023-02-11T17:09:36.617Z,39.10
2023-02-11T17:12:15.669Z,35.90
2023-02-11T17:14:54.069Z,38.00
2023-02-11T17:17:31.255Z,40.90
2023-02-11T17:20:13.762Z,41.30
2023-02-11T17:22:51.498Z,38.80
2023-02-11T17:25:29.207Z,37.70
2023-02-11T17:28:07.272Z,45.30
2023-02-11T17:30:45.099Z,35.60
2023-02-11T17:33:22.929Z,44.60
2023-02-11T17:36:00.401Z,40.40
2023-02-11T17:38:38.508Z,43.30
2023-02-11T17:41:16.286Z,35.30
2023-02-11T17:43:54.238Z,39.40
2023-02-11T17:46:32.449Z,38.40
2023-02-11T17:49:11.155Z,45.10
2023-02-11T17:51:49.939Z,44.50
2023-02-11T17:54:28.299Z,48.20
2023-02-11T17:57:05.736Z,45.90
2023-02-11T17:59:43.248Z,50.10
2023-02-11T18:02:21.799Z,43.90
2023-02-11T18:04:58.914Z,42.90
2023-02-11T18:07:36.114Z,44.10
2023-02-11T18:10:20.031Z,43.70
2023-02-11T18:12:58.682Z,44.20
2023-02-11T18:15:35.625Z,39.50
2023-02-11T18:18:13.424Z,37.50
2023-02-11T18:20:59.252Z,38.60
2023-02-11T18:23:37.693Z,42.60
2023-02-11T18:26:18.542Z,33.80
2023-02-11T18:28:59.341Z,35.30
2023-02-11T18:31:36.750Z,42.70
2023-02-11T18:34:15.945Z,40.40
2023-02-11T18:36:53.503Z,45.10
2023-02-11T18:39:31.473Z,36.80
2023-02-11T18:42:07.708Z,41.70
2023-02-11T18:44:44.987Z,39.60
2023-02-11T18:47:21.847Z,38.20
2023-02-11T18:49:59.054Z,38.70
2023-02-11T18:52:37.053Z,43.00
2023-02-11T18:55:17.257Z,44.80
2023-02-11T18:57:54.761Z,42.30
2023-02-11T19:00:33.680Z,49.40
2023-02-11T19:03:11.483Z,51.50
2023-02-11T19:05:52.704Z,43.50
2023-02-11T19:08:30.645Z,42.30
2023-02-11T19:11:10.638Z,37.30
2023-02-11T19:13:49.255Z,38.60
2023-02-11T19:16:26.493Z,39.80
2023-02-11T19:19:04.636Z,49.40
2023-02-11T19:21:41.575Z,39.60
2023-02-11T19:24:21.262Z,40.10
2023-02-11T19:27:02.147Z,46.60
2023-02-11T19:29:39.730Z,43.80
2023-02-11T19:32:17.862Z,42.90
2023-02-11T19:34:55.946Z,44.40
2023-02-11T19:37:33.587Z,40.00
2023-02-11T19:40:16.858Z,35.40
2023-02-11T19:42:53.730Z,35.60
2023-02-11T19:45:30.179Z,38.90
2023-02-11T19:48:07.973Z,47.30
2023-02-11T19:50:45.793Z,40.30
2023-02-11T19:53:22.899Z,42.40
2023-02-11T19:56:03.013Z,39.50
2023-02-11T19:58:39.862Z,39.30
2023-02-11T20:01:20.531Z,41.40
2023-02-11T20:03:59.604Z,42.10
2023-02-11T20:06:38.082Z,47.50
2023-02-11T20:09:18.194Z,41.90
2023-02-11T20:11:55.191Z,45.20
2023-02-11T20:14:32.992Z,45.50
2023-02-11T20:17:10.115Z,43.40
2023-02-11T20:19:48.035Z,44.10
2023-02-11T20:22:26.021Z,49.90
2023-02-11T20:25:03.847Z,44.40
2023-02-11T20:27:41.303Z,44.70
2023-02-11T20:30:22.524Z,52.90
2023-02-11T20:32:59.903Z,56.00
2023-02-11T20:35:37.907Z,50.10
2023-02-11T20:38:14.693Z,44.60
2023-02-11T20:40:52.201Z,43.70
2023-02-11T20:43:29.776Z,45.20
2023-02-11T20:46:10.756Z,37.00
2023-02-11T20:48:47.863Z,40.70
2023-02-11T20:51:30.488Z,42.50
2023-02-11T20:54:08.318Z,46.60
2023-02-11T20:56:47.921Z,43.80
2023-02-11T20:59:38.731Z,41.60
2023-02-11T21:02:17.615Z,33.50
2023-02-11T21:04:55.030Z,39.30
2023-02-11T21:07:31.426Z,36.40
2023-02-11T21:10:08.885Z,35.60
2023-02-11T21:12:48.877Z,35.50
2023-02-11T21:15:27.055Z,39.40
2023-02-11T21:18:04.052Z,39.10
2023-02-11T21:20:40.916Z,38.90
2023-02-11T21:23:18.473Z,35.20
2023-02-11T21:25:55.890Z,32.30
2023-02-11T21:28:33.198Z,34.50
2023-02-11T21:31:10.236Z,37.20
2023-02-11T21:33:48.142Z,36.60
2023-02-11T21:36:25.337Z,34.00
2023-02-11T21:39:02.750Z,33.70
2023-02-11T21:41:39.510Z,34.10
2023-02-11T21:44:16.629Z,31.70
2023-02-11T21:46:53.669Z,29.20
2023-02-11T21:49:31.450Z,31.00
2023-02-11T21:52:09.162Z,49.10
2023-02-11T21:54:47.503Z,42.30
2023-02-11T21:57:24.982Z,42.00
2023-02-11T22:00:03.108Z,38.70
2023-02-11T22:02:44.132Z,39.30
2023-02-11T22:05:21.190Z,35.90
2023-02-11T22:07:58.101Z,38.50
2023-02-11T22:10:35.142Z,36.50
2023-02-11T22:13:12.512Z,37.30
2023-02-11T22:15:49.031Z,29.90
2023-02-11T22:18:25.807Z,33.20
2023-02-11T22:21:11.975Z,35.60
2023-02-11T22:23:49.639Z,35.20
2023-02-11T22:26:27.681Z,35.50
2023-02-11T22:29:04.793Z,32.00
2023-02-11T22:31:41.993Z,33.90
2023-02-11T22:34:20.012Z,29.40
2023-02-11T22:36:57.661Z,34.60
2023-02-11T22:39:35.117Z,39.00
2023-02-11T22:42:13.130Z,32.50
2023-02-11T22:44:49.882Z,30.60
2023-02-11T22:47:27.114Z,31.40
2023-02-11T22:50:03.723Z,31.70
2023-02-11T22:52:42.330Z,29.90
2023-02-11T22:55:19.747Z,37.80
2023-02-11T22:57:56.804Z,38.10
2023-02-11T23:00:38.635Z,35.10
2023-02-11T23:03:20.252Z,43.20
2023-02-11T23:05:57.777Z,41.20
2023-02-11T23:08:36.285Z,39.60
2023-02-11T23:11:16.862Z,35.50
2023-02-11T23:13:54.801Z,36.30
2023-02-11T23:16:35.627Z,34.60
2023-02-11T23:19:14.617Z,36.20
2023-02-11T23:21:55.918Z,36.10
2023-02-11T23:24:31.953Z,32.30
2023-02-11T23:27:09.727Z,40.50
2023-02-11T23:29:47.600Z,35.70
2023-02-11T23:32:26.801Z,34.50
2023-02-11T23:35:04.607Z,36.70
2023-02-11T23:37:42.746Z,28.60
2023-02-11T23:40:24.863Z,31.90
2023-02-11T23:43:03.000Z,27.80
2023-02-11T23:45:39.554Z,35.10
2023-02-11T23:48:16.843Z,31.30
2023-02-11T23:50:53.838Z,31.90
2023-02-11T23:53:31.507Z,34.40
2023-02-11T23:56:13.269Z,31.90
2023-02-11T23:58:50.102Z,28.50
